Date,TemperatureHighF,TemperatureAvgF,TemperatureLowF,DewpointHighF,DewpointAvgF,DewpointLowF,HumidityHigh,HumidityAvg,HumidityLow,PressureMaxIn,PressureMinIn,WindSpeedMaxMPH,WindSpeedAvgMPH,GustSpeedMaxMPH,PrecipitationSumIn
2012-1-1,48.8,41.3,34.5,-99.9,-99.9,-99.9,0,0,100,30.07,29.64,13,1,13,1.74
2012-1-2,45.6,39.0,30.8,-99.9,-99.9,-99.9,0,0,100,29.72,29.51,27,4,27,0.87
2012-1-3,30.8,22.0,9.6,-99.9,-99.9,-99.9,0,0,100,30.04,29.71,26,4,26,0.29
2012-1-4,25.0,16.7,6.4,-99.9,-99.9,-99.9,0,0,100,30.12,29.92,19,3,22,0.00
2012-1-5,36.2,28.5,23.0,-99.9,-99.9,-99.9,0,0,100,29.94,29.73,15,3,15,0.00
2012-1-6,31.2,26.4,22.1,-99.9,-99.9,-99.9,0,0,100,29.97,29.77,6,1,6,0.00
2012-1-7,45.9,33.3,25.5,-99.9,-99.9,-99.9,0,0,100,29.89,29.76,14,1,14,0.00
2012-1-8,43.9,35.4,26.2,-99.9,-99.9,-99.9,0,0,100,30.30,29.88,18,3,18,0.00
2012-1-9,36.7,28.3,21.6,-99.9,-99.9,-99.9,0,0,100,30.33,30.00,11,1,11,0.00
2012-1-10,44.3,35.4,28.0,-99.9,-99.9,-99.9,0,0,100,30.00,29.75,21,1,21,0.00
2012-1-11,36.4,31.7,26.0,-99.9,-99.9,-99.9,0,0,100,30.18,29.97,9,0,10,0.00
2012-1-12,39.3,34.9,29.4,-99.9,-99.9,-99.9,0,0,100,30.12,29.51,33,6,33,12.76
2012-1-13,49.2,34.2,28.9,-99.9,-99.9,-99.9,0,0,100,29.61,29.12,38,6,38,0.87
2012-1-14,32.5,26.9,11.8,-99.9,-99.9,-99.9,0,0,100,30.04,29.53,30,7,30,0.00
2012-1-15,14.0,8.2,2.2,-99.9,-99.9,-99.9,0,0,100,30.53,30.03,18,4,22,0.00
2012-1-16,29.7,22.0,7.0,-99.9,-99.9,-99.9,0,0,100,30.61,30.13,20,3,20,0.00
2012-1-17,43.1,36.3,29.3,-99.9,-99.9,-99.9,0,0,100,30.13,29.44,17,2,17,5.22
2012-1-18,46.5,33.2,17.0,-99.9,-99.9,-99.9,0,0,100,30.18,29.39,31,7,31,0.29
2012-1-19,30.0,21.6,11.2,-99.9,-99.9,-99.9,0,0,100,30.35,29.99,13,1,13,0.00
2012-1-20,30.4,24.8,17.4,-99.9,-99.9,-99.9,0,0,100,30.32,29.93,27,2,27,1.45
2012-1-21,18.7,16.3,12.1,-99.9,-99.9,-99.9,0,0,100,30.40,30.17,16,2,16,0.00
2012-1-22,26.0,18.5,7.1,-99.9,-99.9,-99.9,0,0,100,30.62,30.39,12,1,12,1.16
2012-1-23,45.9,34.4,24.1,-99.9,-99.9,-99.9,0,0,100,30.57,29.89,9,0,9,6.67
2012-1-24,53.2,47.5,39.1,-99.9,-99.9,-99.9,0,0,100,30.04,29.85,18,3,18,0.00
2012-1-25,40.4,36.0,32.6,-99.9,-99.9,-99.9,0,0,100,30.21,30.03,21,3,23,0.00
2012-1-26,38.8,33.8,29.3,-99.9,-99.9,-99.9,0,0,100,30.25,30.03,11,1,13,0.00
2012-1-27,42.6,38.3,32.4,-99.9,-99.9,-99.9,0,0,100,30.04,29.26,25,2,25,29.29
2012-1-28,45.4,39.0,35.8,-99.9,-99.9,-99.9,0,0,100,30.01,29.57,21,4,21,0.00
2012-1-29,41.5,36.2,31.7,-99.9,-99.9,-99.9,0,0,100,30.08,29.86,27,6,27,0.00
2012-1-30,36.9,30.5,21.3,-99.9,-99.9,-99.9,0,0,100,30.32,29.93,29,3,29,0.00
2012-1-31,41.3,30.5,21.2,-99.9,-99.9,-99.9,0,0,100,30.32,30.06,12,2,12,0.00
2012-2-1,27.9,27.9,27.9,-99.9,-99.9,-99.9,0,0,100,30.06,30.05,4,0,4,0.00
2012-2-2,32.6,30.6,28.6,-99.9,-99.9,-99.9,0,0,100,30.23,30.07,12,4,12,0.00
2012-2-3,36.0,29.2,22.4,-99.9,-99.9,-99.9,0,0,100,30.41,30.23,21,2,21,0.00
2012-2-4,36.9,31.8,23.7,-99.9,-99.9,-99.9,0,0,100,30.27,30.14,23,3,23,0.00
2012-2-5,34.9,24.8,14.4,-99.9,-99.9,-99.9,0,0,100,30.22,30.07,11,1,11,0.00
2012-2-6,50.9,37.8,25.6,-99.9,-99.9,-99.9,0,0,100,30.08,29.80,20,6,21,0.00
2012-2-7,46.5,36.0,26.1,-99.9,-99.9,-99.9,0,0,100,30.28,29.87,15,3,21,0.00
2012-2-8,36.8,27.4,15.2,-99.9,-99.9,-99.9,0,0,100,30.34,30.08,9,2,14,0.00
2012-2-9,45.6,33.9,23.0,-99.9,-99.9,-99.9,0,0,100,30.11,29.96,18,2,18,0.00
2012-2-10,49.6,36.6,21.5,-99.9,-99.9,-99.9,0,0,100,30.12,29.89,18,3,18,0.00
2012-2-11,39.0,34.7,27.3,-99.9,-99.9,-99.9,0,0,100,29.90,29.54,18,3,18,0.00
2012-2-12,27.3,17.5,11.9,-99.9,-99.9,-99.9,0,0,100,29.91,29.55,28,7,30,0.00
2012-2-13,40.1,27.0,12.7,-99.9,-99.9,-99.9,0,0,100,29.99,29.77,22,4,22,0.00
2012-2-14,43.4,31.1,19.1,-99.9,-99.9,-99.9,0,0,100,30.13,29.99,10,1,11,0.00
2012-2-15,41.6,34.6,28.5,-99.9,-99.9,-99.9,0,0,100,30.26,30.12,3,0,3,0.29
2012-2-16,47.5,38.9,28.4,-99.9,-99.9,-99.9,0,0,100,30.28,30.06,8,0,8,3.19
2012-2-17,51.6,41.9,33.3,-99.9,-99.9,-99.9,0,0,100,30.06,29.84,16,2,16,0.29
2012-2-18,46.2,37.0,29.6,-99.9,-99.9,-99.9,0,0,100,29.97,29.83,18,3,18,0.00
2012-2-19,42.4,33.1,26.9,-99.9,-99.9,-99.9,0,0,100,30.09,29.97,16,2,17,0.00
2012-2-20,39.7,29.3,18.8,-99.9,-99.9,-99.9,0,0,100,30.33,30.03,25,3,25,0.00
2012-2-21,43.2,32.2,18.9,-99.9,-99.9,-99.9,0,0,100,30.37,29.88,13,1,13,0.00
2012-2-22,53.7,41.9,28.9,-99.9,-99.9,-99.9,0,0,100,29.88,29.54,21,2,21,0.29
2012-2-23,50.5,42.4,34.9,-99.9,-99.9,-99.9,0,0,100,29.80,29.37,23,2,23,2.03
2012-2-24,40.8,36.3,29.8,-99.9,-99.9,-99.9,0,0,100,29.83,29.18,12,0,12,16.53
2012-2-25,42.0,37.1,29.4,-99.9,-99.9,-99.9,0,0,100,29.77,29.16,36,7,36,0.00
2012-2-26,37.3,29.4,23.1,-99.9,-99.9,-99.9,0,0,100,30.47,29.77,32,6,32,0.00
2012-2-27,45.8,33.8,17.8,-99.9,-99.9,-99.9,0,0,100,30.50,30.03,16,2,16,0.00
2012-2-28,42.1,37.0,27.8,-99.9,-99.9,-99.9,0,0,100,30.42,30.03,23,4,25,0.00
2012-2-29,35.7,31.3,27.7,-99.9,-99.9,-99.9,0,0,100,30.42,29.99,11,0,11,0.29
2012-3-1,34.3,28.7,20.8,-99.9,-99.9,-99.9,0,0,100,30.06,29.83,24,7,24,14.50
2012-3-2,28.3,24.0,18.7,-99.9,-99.9,-99.9,0,0,100,30.20,30.01,18,3,18,4.06
2012-3-3,40.9,36.6,28.0,-99.9,-99.9,-99.9,0,0,100,30.02,29.35,14,3,14,11.89
2012-3-4,40.7,35.1,28.6,-99.9,-99.9,-99.9,0,0,100,29.69,29.52,12,3,12,0.00
2012-3-5,35.6,29.9,24.9,-99.9,-99.9,-99.9,0,0,100,30.26,29.63,20,4,20,0.00
2012-3-6,36.1,29.8,22.4,-99.9,-99.9,-99.9,0,0,100,30.61,30.52,13,2,14,0.00
2012-3-7,57.0,41.7,22.5,-99.9,-99.9,-99.9,0,0,100,30.61,30.24,20,5,21,0.00
2012-3-8,68.5,56.9,45.9,-99.9,-99.9,-99.9,0,0,100,30.24,29.67,38,10,38,0.00
2012-3-9,60.5,40.8,29.2,-99.9,-99.9,-99.9,0,0,100,30.18,29.65,32,5,32,0.87
2012-3-10,37.5,31.3,27.4,-99.9,-99.9,-99.9,0,0,100,30.54,30.17,15,2,15,4.64
2012-3-11,56.3,43.0,27.8,-99.9,-99.9,-99.9,0,0,100,30.54,30.24,17,5,29,0.00
2012-3-12,69.4,52.8,37.1,-99.9,-99.9,-99.9,0,0,100,30.27,30.11,14,2,29,0.00
2012-3-13,71.6,57.1,46.1,-99.9,-99.9,-99.9,0,0,100,30.12,29.85,22,2,22,0.00
2012-3-14,52.4,41.2,37.3,-99.9,-99.9,-99.9,0,0,100,30.30,29.94,17,3,17,5.51
2012-3-15,40.6,36.9,34.5,-99.9,-99.9,-99.9,0,0,100,30.42,30.29,10,1,15,0.00
2012-3-16,42.8,39.6,35.5,-99.9,-99.9,-99.9,0,0,100,30.39,30.12,9,0,9,2.03
2012-3-17,55.2,44.2,37.4,-99.9,-99.9,-99.9,0,0,100,30.40,30.19,9,0,9,0.29
2012-3-18,75.5,56.2,38.4,-99.9,-99.9,-99.9,0,0,100,30.35,30.11,17,3,17,0.00
2012-3-19,73.8,55.0,43.5,-99.9,-99.9,-99.9,0,0,100,30.31,30.10,16,3,16,0.00
2012-3-20,77.4,57.2,37.3,-99.9,-99.9,-99.9,0,0,100,30.34,30.20,13,2,13,0.00
2012-3-21,80.6,68.1,55.9,-99.9,-99.9,-99.9,0,0,100,30.33,30.19,15,4,15,0.00
2012-3-22,82.4,68.9,56.5,-99.9,-99.9,-99.9,0,0,100,30.21,29.96,15,4,15,0.00
2012-3-23,71.7,65.8,56.0,-99.9,-99.9,-99.9,0,0,100,30.13,29.98,28,4,28,0.00
2012-3-24,55.9,49.2,45.6,-99.9,-99.9,-99.9,0,0,100,30.20,30.06,8,2,8,0.00
2012-3-25,46.2,43.5,40.5,-99.9,-99.9,-99.9,0,0,100,30.06,29.72,10,1,10,1.45
2012-3-26,44.5,38.0,30.2,-99.9,-99.9,-99.9,0,0,100,29.98,29.60,35,6,35,0.29
2012-3-27,46.2,34.7,24.3,-99.9,-99.9,-99.9,0,0,100,30.19,29.97,31,6,31,0.00
2012-3-28,48.3,40.2,30.5,-99.9,-99.9,-99.9,0,0,100,30.17,29.57,14,1,14,0.87
2012-3-29,42.5,40.2,37.6,-99.9,-99.9,-99.9,0,0,100,29.69,29.55,13,3,13,0.87
2012-3-30,47.3,42.2,35.8,-99.9,-99.9,-99.9,0,0,100,30.06,29.96,20,2,24,0.00
2012-3-31,44.0,38.1,29.4,-99.9,-99.9,-99.9,0,0,100,30.08,29.90,8,2,21,0.00
2012-4-1,52.5,39.1,25.5,-99.9,-99.9,-99.9,0,0,100,29.91,29.64,12,1,12,3.77
2012-4-2,51.4,42.4,36.7,-99.9,-99.9,-99.9,0,0,100,29.81,29.60,19,5,25,1.45
2012-4-3,55.6,43.5,31.2,-99.9,-99.9,-99.9,0,0,100,29.85,29.70,17,4,24,0.00
2012-4-4,59.3,49.9,40.2,-99.9,-99.9,-99.9,0,0,100,29.74,29.44,17,4,27,0.00
2012-4-5,51.2,42.0,35.3,-99.9,-99.9,-99.9,0,0,100,29.90,29.62,25,5,25,0.00
2012-4-6,51.1,41.0,28.9,-99.9,-99.9,-99.9,0,0,100,29.99,29.87,21,3,23,0.00
2012-4-7,49.6,40.8,29.5,-99.9,-99.9,-99.9,0,0,100,30.04,29.94,17,2,19,0.00
2012-4-8,48.2,43.1,36.5,-99.9,-99.9,-99.9,0,0,100,30.00,29.61,21,2,21,0.00
2012-4-9,55.1,47.3,37.6,-99.9,-99.9,-99.9,0,0,100,29.61,29.46,31,6,31,0.00
2012-4-10,59.9,49.7,40.5,-99.9,-99.9,-99.9,0,0,100,29.77,29.58,21,5,21,0.00
2012-4-11,54.5,45.7,37.3,-99.9,-99.9,-99.9,0,0,100,29.89,29.76,11,1,11,0.00
2012-4-12,54.6,45.6,40.0,-99.9,-99.9,-99.9,0,0,100,30.10,29.87,18,2,18,0.29
2012-4-13,62.8,48.5,32.5,-99.9,-99.9,-99.9,0,0,100,30.16,30.00,19,2,19,0.58
2012-4-14,70.5,55.5,40.7,-99.9,-99.9,-99.9,0,0,100,30.14,29.96,15,2,15,0.00
2012-4-15,78.2,65.6,50.2,-99.9,-99.9,-99.9,0,0,100,30.00,29.86,20,3,20,0.00
2012-4-16,84.8,71.9,58.2,-99.9,-99.9,-99.9,0,0,100,30.01,29.85,14,2,14,0.00
2012-4-17,82.1,70.6,60.1,-99.9,-99.9,-99.9,0,0,100,30.12,29.85,20,3,20,0.00
2012-4-18,61.5,51.6,42.7,-99.9,-99.9,-99.9,0,0,100,30.26,30.11,15,2,16,0.00
2012-4-19,60.4,50.8,37.0,-99.9,-99.9,-99.9,0,0,100,30.16,29.98,14,1,14,0.00
2012-4-20,78.9,63.2,48.8,-99.9,-99.9,-99.9,0,0,100,30.01,29.89,19,3,19,0.00
2012-4-21,77.0,64.9,55.6,-99.9,-99.9,-99.9,0,0,100,29.91,29.66,22,3,22,0.00
2012-4-22,60.2,48.7,41.5,-99.9,-99.9,-99.9,0,0,100,29.90,29.66,28,4,28,20.88
2012-4-23,58.7,51.6,40.7,-99.9,-99.9,-99.9,0,0,100,29.77,29.31,34,4,34,9.86
2012-4-24,57.9,51.2,45.4,-99.9,-99.9,-99.9,0,0,100,29.72,29.39,25,5,27,0.29
2012-4-25,62.7,51.0,39.4,-99.9,-99.9,-99.9,0,0,100,29.86,29.71,23,3,23,0.00
2012-4-26,60.2,49.0,35.5,-99.9,-99.9,-99.9,0,0,100,29.96,29.55,15,2,23,0.00
2012-4-27,55.4,49.3,38.6,-99.9,-99.9,-99.9,0,0,100,29.99,29.48,30,6,30,1.74
2012-4-28,56.5,44.5,33.9,-99.9,-99.9,-99.9,0,0,100,30.12,29.98,25,5,27,0.00
2012-4-29,56.9,46.7,36.0,-99.9,-99.9,-99.9,0,0,100,30.23,29.99,32,4,32,0.00
2012-4-30,56.9,47.1,33.4,-99.9,-99.9,-99.9,0,0,100,30.34,30.22,12,2,12,0.00
2012-5-1,49.1,45.1,43.1,-99.9,-99.9,-99.9,0,0,100,30.24,30.11,14,2,16,18.85
2012-5-2,51.3,46.6,43.7,-99.9,-99.9,-99.9,0,0,100,30.27,30.16,11,2,11,1.45
2012-5-3,53.6,48.5,45.5,-99.9,-99.9,-99.9,0,0,100,30.24,30.11,6,0,6,0.58
2012-5-4,55.2,50.5,48.2,-99.9,-99.9,-99.9,0,0,100,30.12,29.94,10,1,10,2.90
2012-5-5,61.0,52.3,46.6,-99.9,-99.9,-99.9,0,0,100,30.12,29.95,8,1,8,0.87
2012-5-6,55.8,50.0,42.4,-99.9,-99.9,-99.9,0,0,100,30.19,30.08,13,2,13,0.29
2012-5-7,63.9,54.0,41.8,-99.9,-99.9,-99.9,0,0,100,30.18,30.09,10,1,10,0.00
2012-5-8,54.2,51.3,47.9,-99.9,-99.9,-99.9,0,0,100,30.12,29.88,13,1,13,14.50
2012-5-9,63.8,59.5,54.2,-99.9,-99.9,-99.9,0,0,100,29.88,29.59,11,1,12,3.48
2012-5-10,64.1,58.0,51.8,-99.9,-99.9,-99.9,0,0,100,29.65,29.36,20,3,20,20.59
2012-5-11,62.5,57.3,45.3,-99.9,-99.9,-99.9,0,0,100,30.05,29.81,27,3,27,0.00
2012-5-12,77.3,64.0,39.5,-99.9,-99.9,-99.9,0,0,100,30.14,30.01,21,3,27,0.00
2012-5-13,82.6,65.0,47.0,-99.9,-99.9,-99.9,0,0,100,30.17,30.03,12,1,21,0.00
2012-5-14,63.2,56.0,52.8,-99.9,-99.9,-99.9,0,0,100,30.22,30.11,10,1,10,0.87
2012-5-15,74.3,62.0,52.8,-99.9,-99.9,-99.9,0,0,100,30.19,29.97,15,1,15,3.48
2012-5-16,71.1,63.8,59.0,-99.9,-99.9,-99.9,0,0,100,29.98,29.80,7,0,7,0.58
2012-5-17,66.8,59.7,45.4,-99.9,-99.9,-99.9,0,0,100,30.17,29.85,21,3,23,0.00
2012-5-18,68.3,55.7,39.7,-99.9,-99.9,-99.9,0,0,100,30.29,30.16,13,1,13,0.00
2012-5-19,72.2,59.7,42.6,-99.9,-99.9,-99.9,0,0,100,30.21,30.13,9,1,10,0.00
2012-5-20,78.3,63.9,47.8,-99.9,-99.9,-99.9,0,0,100,30.32,30.17,12,1,12,0.00
2012-5-21,67.6,57.1,46.8,-99.9,-99.9,-99.9,0,0,100,30.32,30.10,10,1,10,0.58
2012-5-22,62.9,59.1,56.5,-99.9,-99.9,-99.9,0,0,100,30.10,29.84,13,1,15,16.82
2012-5-23,76.0,66.2,59.2,-99.9,-99.9,-99.9,0,0,100,30.07,29.85,10,0,10,1.16
2012-5-24,74.8,64.1,55.8,-99.9,-99.9,-99.9,0,0,100,30.28,30.07,10,0,10,0.00
2012-5-25,71.0,63.5,57.8,-99.9,-99.9,-99.9,0,0,100,30.29,30.10,6,0,6,0.00
2012-5-26,84.3,73.3,60.4,-99.9,-99.9,-99.9,0,0,100,30.11,30.00,13,1,13,0.00
2012-5-27,71.7,63.8,55.9,-99.9,-99.9,-99.9,0,0,100,30.20,30.08,12,2,12,0.00
2012-5-28,67.7,62.3,59.9,-99.9,-99.9,-99.9,0,0,100,30.00,29.97,6,0,6,0.00
2012-5-29,66.8,61.3,59.2,-99.9,-99.9,-99.9,0,0,100,29.98,29.73,11,0,11,1.16
2012-5-30,75.8,66.6,58.9,-99.9,-99.9,-99.9,0,0,100,29.75,29.69,8,0,8,0.29
2012-5-31,81.0,69.1,58.1,-99.9,-99.9,-99.9,0,0,100,29.93,29.71,15,0,16,0.00
2012-6-1,67.6,61.0,53.6,-99.9,-99.9,-99.9,0,0,100,30.11,29.93,15,2,15,0.00
2012-6-2,58.7,56.8,54.4,-99.9,-99.9,-99.9,0,0,100,30.06,29.72,23,2,23,21.75
2012-6-3,58.2,55.7,51.4,-99.9,-99.9,-99.9,0,0,100,29.73,29.66,0,0,0,6.09
2012-6-4,51.7,49.8,48.6,-99.9,-99.9,-99.9,0,0,100,29.83,29.64,0,0,0,0.87
2012-6-5,55.2,51.7,49.0,-99.9,-99.9,-99.9,0,0,100,29.95,29.80,0,0,0,0.58
2012-6-6,62.7,55.5,49.2,-99.9,-99.9,-99.9,0,0,100,30.02,29.94,9,0,9,0.29
2012-6-7,68.3,55.6,46.4,-99.9,-99.9,-99.9,0,0,100,30.01,29.95,10,1,10,1.45
2012-6-8,78.3,63.3,52.3,-99.9,-99.9,-99.9,0,0,100,29.95,29.72,23,2,23,2.03
2012-6-9,77.6,66.3,54.6,-99.9,-99.9,-99.9,0,0,100,29.95,29.77,20,2,20,0.00
2012-6-10,78.3,64.0,51.2,-99.9,-99.9,-99.9,0,0,100,30.25,29.94,12,1,12,0.00
2012-6-11,71.1,63.4,52.3,-99.9,-99.9,-99.9,0,0,100,30.32,30.20,10,1,10,0.00
2012-6-12,77.8,68.1,58.0,-99.9,-99.9,-99.9,0,0,100,30.22,29.98,15,2,15,1.16
2012-6-13,66.5,63.4,61.3,-99.9,-99.9,-99.9,0,0,100,30.09,29.93,7,0,11,30.74
2012-6-14,69.9,61.5,52.8,-99.9,-99.9,-99.9,0,0,100,30.29,30.09,11,0,11,0.00
2012-6-15,71.7,61.7,50.7,-99.9,-99.9,-99.9,0,0,100,30.37,30.27,13,2,13,0.00
2012-6-16,62.0,56.0,49.3,-99.9,-99.9,-99.9,0,0,100,30.42,30.31,16,2,16,0.00
2012-6-17,68.0,56.5,46.1,-99.9,-99.9,-99.9,0,0,100,30.33,30.16,11,1,11,0.29
2012-6-18,65.7,58.6,50.1,-99.9,-99.9,-99.9,0,0,100,30.20,30.14,11,1,11,0.00
2012-6-19,76.3,66.3,51.9,-99.9,-99.9,-99.9,0,0,100,30.18,30.00,16,2,16,0.00
2012-6-20,94.2,80.5,65.7,-99.9,-99.9,-99.9,0,0,100,30.00,29.84,17,2,17,0.00
2012-6-21,92.8,83.4,71.6,-99.9,-99.9,-99.9,0,0,100,29.85,29.71,15,1,15,0.00
2012-6-22,93.1,79.7,67.5,-99.9,-99.9,-99.9,0,0,100,29.78,29.67,12,1,12,0.00
2012-6-23,81.2,70.3,60.7,-99.9,-99.9,-99.9,0,0,100,29.93,29.76,31,1,31,0.58
2012-6-24,82.8,71.3,59.8,-99.9,-99.9,-99.9,0,0,100,29.94,29.85,17,2,17,0.00
2012-6-25,74.1,67.5,63.9,-99.9,-99.9,-99.9,0,0,100,29.86,29.63,23,0,23,8.70
2012-6-26,69.1,62.4,59.1,-99.9,-99.9,-99.9,0,0,100,29.64,29.53,16,2,16,2.32
2012-6-27,73.7,65.0,58.5,-99.9,-99.9,-99.9,0,0,100,29.66,29.53,27,4,27,0.29
2012-6-28,80.0,71.9,62.9,-99.9,-99.9,-99.9,0,0,100,29.71,29.68,5,0,5,0.00
2012-6-29,86.0,72.5,60.2,-99.9,-99.9,-99.9,0,0,100,29.74,29.50,15,1,15,0.00
2012-6-30,87.0,76.7,61.4,-99.9,-99.9,-99.9,0,0,100,29.71,29.60,18,3,18,0.00
2012-7-1,89.5,77.5,66.9,-99.9,-99.9,-99.9,0,0,100,29.83,29.71,19,3,19,0.00
2012-7-2,82.7,73.4,63.9,-99.9,-99.9,-99.9,0,0,100,29.88,29.82,13,1,13,0.00
2012-7-3,81.6,72.0,62.3,-99.9,-99.9,-99.9,0,0,100,29.92,29.84,20,2,20,0.00
2012-7-4,84.7,73.6,63.9,-99.9,-99.9,-99.9,0,0,100,29.85,29.66,11,1,11,1.74
2012-7-5,80.3,73.5,66.8,-99.9,-99.9,-99.9,0,0,100,29.85,29.65,14,2,15,0.00
2012-7-6,84.0,73.9,62.3,-99.9,-99.9,-99.9,0,0,100,29.92,29.81,8,1,8,0.00
2012-7-7,81.4,75.5,68.2,-99.9,-99.9,-99.9,0,0,100,29.82,29.71,11,2,11,0.00
2012-7-8,84.4,74.8,63.9,-99.9,-99.9,-99.9,0,0,100,29.89,29.77,16,2,16,0.00
2012-7-9,80.0,69.6,56.7,-99.9,-99.9,-99.9,0,0,100,29.99,29.88,15,2,15,0.00
2012-7-10,81.5,68.5,52.6,-99.9,-99.9,-99.9,0,0,100,30.09,29.99,14,1,14,0.00
2012-7-11,82.2,74.1,57.6,-99.9,-99.9,-99.9,0,0,100,30.20,30.09,10,1,10,0.00
2012-7-12,88.2,75.2,60.6,-99.9,-99.9,-99.9,0,0,100,30.20,30.10,11,2,11,0.00
2012-7-13,90.7,78.7,66.2,-99.9,-99.9,-99.9,0,0,100,30.19,30.11,12,2,12,0.00
2012-7-14,89.7,77.8,68.7,-99.9,-99.9,-99.9,0,0,100,30.15,30.06,10,2,10,0.00
2012-7-15,91.8,77.1,66.7,-99.9,-99.9,-99.9,0,0,100,30.10,29.87,5,1,7,3.19
2012-7-16,85.8,76.3,70.6,-99.9,-99.9,-99.9,0,0,100,29.87,29.75,13,2,13,0.58
2012-7-17,93.1,81.5,69.8,-99.9,-99.9,-99.9,0,0,100,29.78,29.62,23,2,23,1.16
2012-7-18,86.8,78.0,72.7,-99.9,-99.9,-99.9,0,0,100,29.92,29.67,13,2,13,2.03
2012-7-19,77.1,70.8,63.3,-99.9,-99.9,-99.9,0,0,100,30.05,29.91,10,1,10,0.00
2012-7-20,72.8,65.8,57.1,-99.9,-99.9,-99.9,0,0,100,30.12,30.05,9,1,9,0.00
2012-7-21,80.0,66.6,52.0,-99.9,-99.9,-99.9,0,0,100,30.13,30.07,8,1,8,0.00
2012-7-22,87.8,73.4,58.3,-99.9,-99.9,-99.9,0,0,100,30.15,30.05,15,2,15,0.00
2012-7-23,85.9,75.5,65.5,-99.9,-99.9,-99.9,0,0,100,30.09,29.75,16,3,16,0.87
2012-7-24,89.2,76.0,67.4,-99.9,-99.9,-99.9,0,0,100,29.76,29.52,22,3,22,0.87
2012-7-25,69.5,63.6,59.7,-99.9,-99.9,-99.9,0,0,100,29.79,29.69,13,2,14,0.00
2012-7-26,80.9,74.2,65.5,-99.9,-99.9,-99.9,0,0,100,29.73,29.60,12,1,12,0.00
2012-7-27,75.3,67.8,65.6,-99.9,-99.9,-99.9,0,0,100,29.92,29.61,10,1,12,1.45
2012-7-28,79.2,68.8,61.6,-99.9,-99.9,-99.9,0,0,100,30.01,29.91,9,1,10,4.06
2012-7-29,70.1,66.0,61.5,-99.9,-99.9,-99.9,0,0,100,30.09,29.95,12,1,12,4.06
2012-7-30,84.0,70.3,57.8,-99.9,-99.9,-99.9,0,0,100,30.13,30.06,12,1,13,0.00
2012-7-31,79.8,69.0,61.0,-99.9,-99.9,-99.9,0,0,100,30.13,29.91,10,1,10,3.19
2012-8-1,80.5,71.4,66.0,-99.9,-99.9,-99.9,0,0,100,29.93,29.84,12,1,12,0.58
2012-8-2,83.8,74.5,67.0,-99.9,-99.9,-99.9,0,0,100,29.89,29.82,7,0,9,0.29
2012-8-3,91.8,80.1,70.0,-99.9,-99.9,-99.9,0,0,100,30.09,29.88,13,2,13,0.00
2012-8-4,84.7,76.2,69.8,-99.9,-99.9,-99.9,0,0,100,30.24,30.08,9,1,9,0.00
2012-8-5,90.7,77.2,67.2,-99.9,-99.9,-99.9,0,0,100,30.24,29.91,18,2,18,1.74
2012-8-6,82.2,75.2,62.0,-99.9,-99.9,-99.9,0,0,100,30.00,29.89,19,2,19,0.29
2012-8-7,78.9,69.0,57.9,-99.9,-99.9,-99.9,0,0,100,30.04,29.94,10,1,10,0.00
2012-8-8,86.6,74.1,61.7,-99.9,-99.9,-99.9,0,0,100,30.00,29.94,10,0,10,0.00
2012-8-9,69.5,67.7,65.4,-99.9,-99.9,-99.9,0,0,100,29.97,29.94,2,0,3,0.00
2012-8-10,82.5,75.1,68.8,-99.9,-99.9,-99.9,0,0,100,29.96,29.80,14,1,14,0.00
2012-8-11,81.1,72.0,67.5,-99.9,-99.9,-99.9,0,0,100,29.94,29.80,11,1,14,0.00
2012-8-12,82.8,74.3,68.6,-99.9,-99.9,-99.9,0,0,100,29.95,29.85,9,0,9,4.35
2012-8-13,84.6,74.4,64.5,-99.9,-99.9,-99.9,0,0,100,29.95,29.88,12,1,12,0.29
2012-8-14,83.6,72.6,63.4,-99.9,-99.9,-99.9,0,0,100,29.96,29.90,14,0,14,0.00
2012-8-15,82.2,73.1,66.9,-99.9,-99.9,-99.9,0,0,100,29.94,29.84,12,1,12,0.00
2012-8-16,80.7,70.8,64.1,-99.9,-99.9,-99.9,0,0,100,29.88,29.80,14,1,14,0.29
2012-8-17,85.4,73.7,60.9,-99.9,-99.9,-99.9,0,0,100,29.86,29.75,16,1,16,3.19
2012-8-18,75.4,69.1,62.0,-99.9,-99.9,-99.9,0,0,100,29.90,29.81,5,0,6,1.45
2012-8-19,73.5,65.9,58.1,-99.9,-99.9,-99.9,0,0,100,29.98,29.90,13,1,13,0.00
2012-8-20,78.0,67.1,56.3,-99.9,-99.9,-99.9,0,0,100,29.94,29.85,9,0,9,0.00
2012-8-21,81.0,69.2,59.8,-99.9,-99.9,-99.9,0,0,100,30.09,29.90,11,0,11,0.00
2012-8-22,80.6,68.0,55.6,-99.9,-99.9,-99.9,0,0,100,30.17,30.08,11,0,11,0.00
2012-8-23,84.1,71.4,58.5,-99.9,-99.9,-99.9,0,0,100,30.15,30.07,12,0,12,0.00
2012-8-24,79.0,70.1,61.1,-99.9,-99.9,-99.9,0,0,100,30.24,30.11,9,0,9,0.00
2012-8-25,79.1,70.6,62.1,-99.9,-99.9,-99.9,0,0,100,30.35,30.24,9,0,9,0.00
2012-8-26,81.8,69.0,58.3,-99.9,-99.9,-99.9,0,0,100,30.37,30.24,11,0,11,0.00
2012-8-27,85.8,72.7,58.7,-99.9,-99.9,-99.9,0,0,100,30.24,29.91,15,2,15,0.00
2012-8-28,74.3,73.2,72.7,-99.9,-99.9,-99.9,0,0,100,29.91,29.82,12,3,13,0.00
2012-8-30,80.1,72.5,67.9,-99.9,-99.9,-99.9,0,0,100,29.95,29.92,16,4,16,0.00
2012-8-31,88.4,75.8,63.9,-99.9,-99.9,-99.9,0,0,100,29.95,29.77,21,5,21,0.00
2012-9-1,74.7,67.2,58.2,-99.9,-99.9,-99.9,0,0,100,30.14,29.85,14,1,14,0.00
2012-9-2,72.4,63.6,57.2,-99.9,-99.9,-99.9,0,0,100,30.18,30.10,12,1,12,0.87
2012-9-3,74.5,65.1,57.6,-99.9,-99.9,-99.9,0,0,100,30.26,30.17,11,1,11,0.29
2012-9-4,68.0,63.1,55.9,-99.9,-99.9,-99.9,0,0,100,30.18,29.88,5,0,5,9.28
2012-9-5,79.8,72.7,66.5,-99.9,-99.9,-99.9,0,0,100,29.88,29.68,17,2,17,7.54
2012-9-6,79.2,70.4,64.4,-99.9,-99.9,-99.9,0,0,100,29.92,29.84,11,1,11,0.29
2012-9-7,85.4,73.5,64.4,-99.9,-99.9,-99.9,0,0,100,29.93,29.84,10,0,10,0.00
2012-9-8,83.9,74.6,64.4,-99.9,-99.9,-99.9,0,0,100,29.91,29.62,21,2,21,0.00
2012-9-9,71.2,63.4,54.2,-99.9,-99.9,-99.9,0,0,100,29.87,29.68,13,1,19,0.00
2012-9-10,66.3,58.4,52.2,-99.9,-99.9,-99.9,0,0,100,30.05,29.86,22,2,22,0.00
2012-9-11,71.8,58.2,47.4,-99.9,-99.9,-99.9,0,0,100,30.28,30.05,12,1,22,0.00
2012-9-12,74.6,59.9,46.1,-99.9,-99.9,-99.9,0,0,100,30.38,30.27,5,0,7,0.00
2012-9-13,82.2,66.9,54.6,-99.9,-99.9,-99.9,0,0,100,30.37,30.25,11,1,11,0.00
2012-9-14,82.0,68.7,58.4,-99.9,-99.9,-99.9,0,0,100,30.27,30.07,8,0,8,0.29
2012-9-15,72.0,63.6,49.9,-99.9,-99.9,-99.9,0,0,100,30.08,29.98,22,2,22,0.29
2012-9-16,67.7,55.5,44.7,-99.9,-99.9,-99.9,0,0,100,30.11,29.99,18,2,18,0.00
2012-9-17,70.2,55.6,41.6,-99.9,-99.9,-99.9,0,0,100,30.12,30.03,10,0,10,0.00
2012-9-18,73.6,64.3,52.4,-99.9,-99.9,-99.9,0,0,100,30.07,29.69,30,2,30,0.58
2012-9-19,73.4,63.7,49.6,-99.9,-99.9,-99.9,0,0,100,30.23,29.67,24,2,24,9.57
2012-9-20,60.6,51.9,43.0,-99.9,-99.9,-99.9,0,0,100,30.31,30.19,10,1,10,0.00
2012-9-21,61.1,52.2,43.2,-99.9,-99.9,-99.9,0,0,100,30.21,30.07,9,0,9,0.29
2012-9-22,68.4,59.2,53.7,-99.9,-99.9,-99.9,0,0,100,30.07,29.84,9,1,9,1.16
2012-9-23,68.7,60.8,46.9,-99.9,-99.9,-99.9,0,0,100,30.10,29.80,15,1,15,0.87
2012-9-24,64.7,51.8,42.5,-99.9,-99.9,-99.9,0,0,100,30.15,30.06,13,1,15,0.00
2012-9-25,72.0,56.2,41.6,-99.9,-99.9,-99.9,0,0,100,30.18,30.10,19,2,19,0.00
2012-9-26,72.7,64.5,56.5,-99.9,-99.9,-99.9,0,0,100,30.15,29.99,17,2,17,0.29
2012-9-27,66.2,59.1,45.4,-99.9,-99.9,-99.9,0,0,100,30.28,30.00,18,2,18,0.29
2012-9-28,55.4,50.1,43.1,-99.9,-99.9,-99.9,0,0,100,30.29,30.04,15,1,15,25.81
2012-9-29,56.2,53.5,50.4,-99.9,-99.9,-99.9,0,0,100,30.05,29.91,20,1,20,2.61
2012-9-30,58.1,54.3,50.8,-99.9,-99.9,-99.9,0,0,100,29.94,29.71,9,0,9,7.25
2012-10-1,62.8,56.1,48.5,-99.9,-99.9,-99.9,0,0,100,29.94,29.69,20,3,20,0.58
2012-10-2,69.2,59.8,54.0,-99.9,-99.9,-99.9,0,0,100,30.09,29.93,13,1,13,1.16
2012-10-3,62.1,59.9,58.1,-99.9,-99.9,-99.9,0,0,100,30.20,30.06,9,0,9,3.77
2012-10-4,60.4,58.6,57.8,-99.9,-99.9,-99.9,0,0,100,30.20,30.05,9,0,9,2.03
2012-10-5,74.1,63.1,57.8,-99.9,-99.9,-99.9,0,0,100,30.05,29.91,10,1,10,0.29
2012-10-6,77.4,63.0,52.6,-99.9,-99.9,-99.9,0,0,100,29.93,29.67,17,2,17,0.58
2012-10-7,58.0,50.1,41.3,-99.9,-99.9,-99.9,0,0,100,30.09,29.92,9,0,9,1.45
2012-10-8,55.4,47.9,39.8,-99.9,-99.9,-99.9,0,0,100,30.35,30.07,11,0,11,2.03
2012-10-9,56.5,51.0,43.9,-99.9,-99.9,-99.9,0,0,100,30.35,30.18,11,1,11,0.00
2012-10-10,59.2,53.9,48.1,-99.9,-99.9,-99.9,0,0,100,30.18,29.71,13,2,13,6.67
2012-10-11,57.7,49.7,39.5,-99.9,-99.9,-99.9,0,0,100,30.14,29.77,22,4,22,0.00
2012-10-12,51.7,44.3,36.0,-99.9,-99.9,-99.9,0,0,100,30.39,30.00,22,3,22,0.87
2012-10-13,51.8,40.5,28.4,-99.9,-99.9,-99.9,0,0,100,30.49,30.34,15,1,15,0.00
2012-10-14,58.6,50.5,42.3,-99.9,-99.9,-99.9,0,0,100,30.36,29.94,16,1,16,12.47
2012-10-15,76.0,63.3,54.5,-99.9,-99.9,-99.9,0,0,100,29.94,29.60,18,2,18,1.74
2012-10-16,60.0,51.4,37.0,-99.9,-99.9,-99.9,0,0,100,29.90,29.56,26,3,26,4.06
2012-10-17,58.4,44.8,34.3,-99.9,-99.9,-99.9,0,0,100,30.04,29.90,8,0,8,0.00
2012-10-18,61.9,47.8,36.4,-99.9,-99.9,-99.9,0,0,100,30.17,30.03,12,0,12,0.00
2012-10-19,63.3,56.3,43.0,-99.9,-99.9,-99.9,0,0,100,30.14,29.76,15,1,15,9.28
2012-10-20,73.8,64.0,55.1,-99.9,-99.9,-99.9,0,0,100,29.80,29.60,13,1,14,8.12
2012-10-21,62.6,54.8,46.2,-99.9,-99.9,-99.9,0,0,100,29.88,29.73,11,2,20,0.00
2012-10-22,64.1,53.5,45.3,-99.9,-99.9,-99.9,0,0,100,30.01,29.87,23,2,23,0.00
2012-10-23,64.3,52.5,44.4,-99.9,-99.9,-99.9,0,0,100,30.15,30.01,17,1,17,0.00
2012-10-24,45.8,38.6,36.0,-99.9,-99.9,-99.9,0,0,100,30.24,30.15,6,0,6,0.00
2012-10-25,56.6,48.3,34.2,-99.9,-99.9,-99.9,0,0,100,30.35,30.28,7,1,12,0.00
2012-10-26,65.0,49.9,38.3,-99.9,-99.9,-99.9,0,0,100,30.29,30.15,8,1,11,0.00
2012-10-27,59.3,49.9,40.7,-99.9,-99.9,-99.9,0,0,100,30.16,30.05,8,0,8,0.00
2012-10-28,54.5,51.1,48.9,-99.9,-99.9,-99.9,0,0,100,30.06,29.84,11,1,11,2.03
2012-10-29,55.7,53.7,51.9,-99.9,-99.9,-99.9,0,0,100,29.85,29.44,0,0,0,6.67
2012-10-30,63.9,58.1,54.3,-99.9,-99.9,-99.9,0,0,100,29.64,29.57,29,0,29,7.83
2012-10-31,58.3,54.3,48.0,-99.9,-99.9,-99.9,0,0,100,29.59,29.50,13,1,13,0.00
2012-11-1,56.9,48.9,43.0,-99.9,-99.9,-99.9,0,0,100,29.59,29.51,10,2,15,0.00
2012-11-2,53.6,47.6,43.4,-99.9,-99.9,-99.9,0,0,100,29.62,29.52,13,3,13,1.45
2012-11-3,50.8,45.2,41.1,-99.9,-99.9,-99.9,0,0,100,29.80,29.61,20,3,20,0.58
2012-11-4,51.8,42.9,36.7,-99.9,-99.9,-99.9,0,0,100,29.97,29.78,14,4,18,0.00
2012-11-5,42.2,36.8,28.7,-99.9,-99.9,-99.9,0,0,100,30.15,29.97,19,2,19,0.00
2012-11-6,41.1,31.2,24.8,-99.9,-99.9,-99.9,0,0,100,30.26,30.15,10,1,13,0.00
2012-11-7,36.4,33.7,29.7,-99.9,-99.9,-99.9,0,0,100,30.24,29.82,28,9,31,0.00
2012-11-8,38.9,35.9,30.6,-99.9,-99.9,-99.9,0,0,100,29.83,29.66,34,11,34,5.22
2012-11-9,50.7,42.0,35.9,-99.9,-99.9,-99.9,0,0,100,30.11,29.76,19,4,19,0.00
2012-11-10,51.9,40.6,30.6,-99.9,-99.9,-99.9,0,0,100,30.50,30.09,13,2,21,0.00
2012-11-11,60.7,45.5,29.9,-99.9,-99.9,-99.9,0,0,100,30.54,30.42,14,1,14,0.00
2012-11-12,66.5,54.6,43.7,-99.9,-99.9,-99.9,0,0,100,30.50,30.27,21,2,21,0.00
2012-11-15,32.2,31.3,30.7,-99.9,-99.9,-99.9,0,0,100,30.38,30.34,0,0,0,0.00
2012-11-16,43.8,34.3,29.1,-99.9,-99.9,-99.9,0,0,100,30.47,30.32,6,0,6,0.00
2012-11-17,45.4,33.6,25.5,-99.9,-99.9,-99.9,0,0,100,30.71,30.47,11,0,11,0.00
2012-11-18,43.9,32.7,25.3,-99.9,-99.9,-99.9,0,0,100,30.77,30.67,12,1,12,0.00
2012-11-19,45.7,34.2,26.3,-99.9,-99.9,-99.9,0,0,100,30.67,30.31,10,1,10,0.00
2012-11-20,47.3,33.8,24.2,-99.9,-99.9,-99.9,0,0,100,30.32,30.17,6,0,6,0.29
2012-11-21,48.3,39.6,32.3,-99.9,-99.9,-99.9,0,0,100,30.31,30.20,11,2,11,0.00
2012-11-22,52.9,40.0,31.0,-99.9,-99.9,-99.9,0,0,100,30.32,30.16,8,0,8,0.00
2012-11-23,56.3,40.4,29.1,-99.9,-99.9,-99.9,0,0,100,30.16,29.65,13,1,13,0.29
2012-11-24,45.2,40.9,31.0,-99.9,-99.9,-99.9,0,0,100,29.66,29.50,27,4,27,0.58
2012-11-25,38.6,32.9,28.2,-99.9,-99.9,-99.9,0,0,100,29.86,29.64,28,5,28,0.00
2012-11-26,44.1,33.4,22.6,-99.9,-99.9,-99.9,0,0,100,30.28,29.86,24,3,24,0.00
2012-11-27,37.7,30.6,21.9,-99.9,-99.9,-99.9,0,0,100,30.36,30.27,12,1,12,0.87
2012-11-28,35.2,30.6,23.2,-99.9,-99.9,-99.9,0,0,100,30.28,30.15,16,3,16,0.00
2012-11-29,42.2,33.1,27.1,-99.9,-99.9,-99.9,0,0,100,30.27,30.15,22,4,22,0.00
2012-11-30,27.7,27.5,27.1,-99.9,-99.9,-99.9,0,0,100,30.61,30.58,7,0,7,0.00
2012-12-1,27.4,25.8,23.1,-99.9,-99.9,-99.9,0,0,100,30.70,30.55,12,3,12,0.00
2012-12-2,49.2,36.5,26.8,-99.9,-99.9,-99.9,0,0,100,30.55,30.04,12,2,20,2.61
2012-12-3,55.2,45.4,29.7,-99.9,-99.9,-99.9,0,0,100,30.35,30.02,20,3,21,0.29
2012-12-4,57.1,43.4,29.3,-99.9,-99.9,-99.9,0,0,100,30.37,29.97,15,1,15,0.00
2012-12-5,57.9,48.5,30.5,-99.9,-99.9,-99.9,0,0,100,30.15,29.82,27,6,27,0.58
2012-12-6,38.7,30.1,21.0,-99.9,-99.9,-99.9,0,0,100,30.35,30.15,20,2,20,0.00
2012-12-7,43.7,33.2,20.5,-99.9,-99.9,-99.9,0,0,100,30.34,30.06,10,1,10,1.45
2012-12-8,41.9,39.7,38.9,-99.9,-99.9,-99.9,0,0,100,30.07,29.88,11,1,11,5.51
2012-12-9,43.9,40.3,33.9,-99.9,-99.9,-99.9,0,0,100,30.34,29.96,11,0,11,0.87
2012-12-10,48.0,43.7,40.3,-99.9,-99.9,-99.9,0,0,100,30.22,29.49,13,1,13,9.57
2012-12-11,45.4,40.2,29.8,-99.9,-99.9,-99.9,0,0,100,30.17,29.53,16,0,16,0.87
2012-12-12,36.9,29.5,23.9,-99.9,-99.9,-99.9,0,0,100,30.46,30.16,6,1,8,0.29
2012-12-13,32.9,25.4,23.2,-99.9,-99.9,-99.9,0,0,100,30.47,30.30,3,0,3,0.00
2012-12-14,46.8,33.9,23.9,-99.9,-99.9,-99.9,0,0,100,30.30,30.05,19,2,19,0.00
2012-12-15,38.9,32.3,24.8,-99.9,-99.9,-99.9,0,0,100,30.39,30.17,13,1,13,0.00
2012-12-16,26.0,24.4,23.3,-99.9,-99.9,-99.9,0,0,100,30.40,30.15,12,4,12,0.00
2012-12-17,33.9,29.4,24.9,-99.9,-99.9,-99.9,0,0,100,30.15,29.86,15,4,15,11.31
2012-12-18,49.3,42.7,33.6,-99.9,-99.9,-99.9,0,0,100,29.86,29.40,16,2,16,11.60
2012-12-19,42.3,38.9,35.1,-99.9,-99.9,-99.9,0,0,100,30.06,29.43,26,4,26,0.58
2012-12-20,39.2,35.5,29.2,-99.9,-99.9,-99.9,0,0,100,30.25,30.06,9,0,9,0.29
2012-12-21,52.4,44.1,36.7,-99.9,-99.9,-99.9,0,0,100,30.07,29.09,39,5,39,15.08
2012-12-22,39.3,33.7,27.0,-99.9,-99.9,-99.9,0,0,100,29.62,29.21,31,6,31,0.29
2012-12-23,38.6,30.2,21.1,-99.9,-99.9,-99.9,0,0,100,29.85,29.62,23,4,24,0.00
2012-12-24,38.2,30.9,25.0,-99.9,-99.9,-99.9,0,0,100,30.09,29.85,22,2,22,0.00
2012-12-25,32.6,28.4,24.2,-99.9,-99.9,-99.9,0,0,100,30.25,30.02,12,2,12,0.00
2012-12-26,37.0,28.0,16.6,-99.9,-99.9,-99.9,0,0,100,30.36,29.99,17,2,17,2.61
2012-12-27,42.7,35.3,28.6,-99.9,-99.9,-99.9,0,0,100,30.00,29.31,35,10,35,22.33
2012-12-28,33.6,29.3,25.7,-99.9,-99.9,-99.9,0,0,100,30.02,29.61,24,4,24,0.87
2012-12-29,35.7,28.4,24.7,-99.9,-99.9,-99.9,0,0,100,30.02,29.44,27,4,27,0.00
2012-12-30,26.0,23.4,18.6,-99.9,-99.9,-99.9,0,0,100,29.95,29.44,27,7,34,0.29
2012-12-31,33.1,26.4,18.8,-99.9,-99.9,-99.9,0,0,100,30.02,29.75,22,4,23,1.16
2013-1-1,35.1,29.0,16.1,-99.9,-99.9,-99.9,0,0,100,29.94,29.69,26,5,26,0.87